Time;durP1;ratioP1;P1;durP2;ratioP2;P2;SDS_P1;SDS_P2;PMS_P1;PMS_P2;Temp;Humidity;BMP_temperature;BMP_pressure;BME280_temperature;BME280_humidity;BME280_pressure;Samples;Min_cycle;Max_cycle;Signal;HPM_P1;HPM_P2
2022/11/13 00:00:34;;;;;;;42.35;28.20;;;9.20;99.90;;;;;;5022713;28;20479;-57
2022/11/13 00:03:00;;;;;;;44.10;28.00;;;9.00;99.90;;;;;;5004706;28;20474;-56
2022/11/13 00:05:26;;;;;;;44.35;27.65;;;9.00;99.90;;;;;;5007259;28;20025;-55
2022/11/13 00:07:51;;;;;;;54.05;32.67;;;8.80;99.90;;;;;;5004902;28;20490;-57
2022/11/13 00:10:17;;;;;;;43.53;30.08;;;8.60;99.90;;;;;;5011532;28;20022;-58
2022/11/13 00:12:43;;;;;;;42.00;27.73;;;8.60;99.90;;;;;;5040362;28;20048;-57
2022/11/13 00:15:09;;;;;;;43.58;27.38;;;8.60;99.90;;;;;;5008981;28;20034;-54
2022/11/13 00:17:35;;;;;;;39.92;27.50;;;8.50;99.90;;;;;;5008015;28;20038;-58
2022/11/13 00:20:01;;;;;;;44.42;26.65;;;8.60;99.90;;;;;;5007685;28;20023;-59
2022/11/13 00:22:26;;;;;;;41.83;27.65;;;9.10;99.90;;;;;;5009254;28;20442;-56
2022/11/13 00:24:53;;;;;;;42.20;28.75;;;8.80;99.90;;;;;;5002985;28;20041;-57
2022/11/13 00:27:19;;;;;;;41.97;27.98;;;9.20;99.90;;;;;;5006642;28;20030;-57
2022/11/13 00:29:44;;;;;;;37.05;25.05;;;8.70;99.90;;;;;;5025919;28;20045;-57
2022/11/13 00:32:10;;;;;;;39.03;26.52;;;8.80;99.90;;;;;;5021054;28;20040;-59
2022/11/13 00:34:36;;;;;;;36.38;25.85;;;8.50;99.90;;;;;;5028223;28;20042;-55
2022/11/13 00:37:01;;;;;;;38.72;24.52;;;8.70;99.90;;;;;;5009753;28;20056;-59
2022/11/13 00:39:27;;;;;;;37.65;26.75;;;8.80;99.90;;;;;;5022495;28;20076;-60
2022/11/13 00:41:53;;;;;;;67.97;35.47;;;8.70;99.90;;;;;;5023948;28;20057;-55
2022/11/13 00:44:19;;;;;;;47.47;32.72;;;9.00;99.90;;;;;;5007777;28;20033;-57
2022/11/13 00:46:44;;;;;;;47.75;31.27;;;8.90;99.90;;;;;;5009393;28;20038;-57
2022/11/13 00:49:11;;;;;;;43.95;31.00;;;8.80;99.90;;;;;;5013072;28;20041;-53
2022/11/13 00:51:37;;;;;;;40.78;29.70;;;8.70;99.90;;;;;;5026913;28;20034;-54
2022/11/13 00:54:03;;;;;;;37.85;26.60;;;8.60;99.90;;;;;;5025463;28;20100;-55
2022/11/13 00:56:29;;;;;;;36.40;25.27;;;8.50;99.90;;;;;;4993283;28;20398;-58
2022/11/13 00:58:54;;;;;;;43.60;28.73;;;8.50;99.90;;;;;;4992056;28;20136;-55
2022/11/13 01:01:20;;;;;;;39.50;28.90;;;8.30;99.90;;;;;;4992176;28;20418;-57
2022/11/13 01:03:46;;;;;;;39.25;26.92;;;8.50;99.90;;;;;;5011299;28;20046;-57
2022/11/13 01:06:16;;;;;;;35.55;23.98;;;8.70;99.90;;;;;;5008068;28;20405;-56
2022/11/13 01:08:42;;;;;;;35.25;24.58;;;8.70;99.90;;;;;;5004778;28;20027;-59
2022/11/13 01:11:13;;;;;;;35.72;24.90;;;8.60;99.90;;;;;;5008662;28;20037;-58
2022/11/13 01:13:46;;;;;;;36.20;25.20;;;8.60;99.90;;;;;;5008632;28;20037;-57
2022/11/13 01:16:14;;;;;;;33.85;24.10;;;8.70;99.90;;;;;;5006278;28;20050;-57
2022/11/13 01:18:40;;;;;;;34.30;23.80;;;8.80;99.90;;;;;;5008061;28;20026;-58
2022/11/13 01:21:09;;;;;;;33.70;23.45;;;8.50;99.90;;;;;;5004556;28;20037;-59
2022/11/13 01:23:35;;;;;;;36.15;24.83;;;8.90;99.90;;;;;;5006646;28;20029;-54
2022/11/13 01:26:06;;;;;;;29.23;22.27;;;8.90;99.90;;;;;;5001935;28;20482;-56
2022/11/13 01:28:32;;;;;;;35.63;24.43;;;9.00;99.90;;;;;;5002677;28;20091;-57
2022/11/13 01:30:57;;;;;;;34.08;23.73;;;8.90;99.90;;;;;;5010693;28;20134;-59
2022/11/13 01:33:23;;;;;;;35.03;24.08;;;8.70;99.90;;;;;;5006490;28;20116;-60
2022/11/13 01:35:49;;;;;;;35.28;25.42;;;8.60;99.90;;;;;;5009541;28;20033;-56
2022/11/13 01:38:14;;;;;;;33.25;23.50;;;8.10;99.90;;;;;;5019030;28;20553;-54
2022/11/13 01:40:47;;;;;;;34.35;24.63;;;8.30;99.90;;;;;;5025695;28;20041;-55
2022/11/13 01:43:25;;;;;;;;;;;8.10;99.90;;;;;;5010854;28;20038;-54
2022/11/13 01:45:57;;;;;;;32.13;22.25;;;8.00;99.90;;;;;;5010679;28;20823;-58
2022/11/13 01:48:29;;;;;;;39.20;23.67;;;8.20;99.90;;;;;;5012014;28;20168;-53
2022/11/13 01:50:55;;;;;;;30.80;21.30;;;8.40;99.90;;;;;;5011905;28;20029;-57
2022/11/13 01:53:21;;;;;;;31.25;22.23;;;8.50;99.90;;;;;;5039907;28;20375;-56
2022/11/13 01:55:47;;;;;;;32.22;22.25;;;8.60;99.90;;;;;;5006161;28;20081;-57
2022/11/13 01:58:13;;;;;;;36.22;22.60;;;8.40;99.90;;;;;;5010701;28;20029;-56
2022/11/13 02:00:40;;;;;;;32.30;21.48;;;8.20;99.90;;;;;;5006488;28;20084;-58
2022/11/13 02:03:06;;;;;;;36.13;22.85;;;8.30;99.90;;;;;;5007040;28;20434;-55
2022/11/13 02:05:32;;;;;;;34.45;23.40;;;8.30;99.90;;;;;;5013189;28;20060;-55
2022/11/13 02:07:59;;;;;;;33.75;21.55;;;8.20;99.90;;;;;;5010319;28;20119;-58
2022/11/13 02:10:24;;;;;;;31.25;22.67;;;8.10;99.90;;;;;;5012222;28;20390;-57
2022/11/13 02:12:51;;;;;;;35.42;21.30;;;8.40;99.90;;;;;;5010925;28;20032;-58
2022/11/13 02:15:22;;;;;;;32.88;22.35;;;8.30;99.90;;;;;;5013569;28;20026;-55
2022/11/13 02:17:53;;;;;;;35.17;22.25;;;8.20;99.90;;;;;;5011303;28;20038;-59
2022/11/13 02:20:48;;;;;;;35.55;24.58;;;8.20;99.90;;;;;;5002097;28;20031;-58
2022/11/13 02:23:36;;;;;;;33.20;22.60;;;8.10;99.90;;;;;;5007484;28;20037;-57
2022/11/13 02:26:03;;;;;;;29.95;21.88;;;7.80;99.90;;;;;;5008450;28;20536;-55
2022/11/13 02:28:29;;;;;;;30.05;21.67;;;8.30;99.90;;;;;;5009566;28;20374;-55
2022/11/13 02:30:55;;;;;;;32.47;22.33;;;8.00;99.90;;;;;;5011976;28;20121;-54
2022/11/13 02:33:23;;;;;;;33.55;21.35;;;8.20;99.90;;;;;;5008255;28;20030;-58
2022/11/13 02:35:49;;;;;;;32.22;22.38;;;8.20;99.90;;;;;;5009187;28;20030;-55
2022/11/13 02:38:15;;;;;;;29.75;21.58;;;8.10;99.90;;;;;;5008491;28;20440;-51
2022/11/13 02:40:41;;;;;;;32.55;20.95;;;8.10;99.90;;;;;;5007740;28;20109;-56
2022/11/13 02:43:07;;;;;;;30.13;21.92;;;8.20;99.90;;;;;;5006885;28;20026;-60
2022/11/13 02:45:32;;;;;;;30.85;20.83;;;8.10;99.90;;;;;;5009565;28;20030;-53
2022/11/13 02:47:59;;;;;;;31.55;20.30;;;8.10;99.90;;;;;;5043774;28;20394;-57
2022/11/13 02:50:26;;;;;;;30.30;20.95;;;7.90;99.90;;;;;;5009340;28;20478;-57
2022/11/13 02:52:51;;;;;;;30.20;19.83;;;7.80;99.90;;;;;;5012122;28;20121;-58
2022/11/13 02:55:18;;;;;;;31.70;22.55;;;7.70;99.90;;;;;;5011339;28;20121;-59
2022/11/13 02:57:43;;;;;;;34.10;22.77;;;7.60;99.90;;;;;;4994412;28;20034;-55
2022/11/13 03:00:10;;;;;;;34.17;21.98;;;7.50;99.90;;;;;;5011177;28;20390;-60
2022/11/13 03:02:36;;;;;;;31.27;22.15;;;;;;;;;;4995593;28;20038;-57
2022/11/13 03:05:02;;;;;;;29.10;18.73;;;;;;;;;;5011223;28;20057;-57
2022/11/13 03:07:28;;;;;;;30.35;20.90;;;;;;;;;;4987970;28;20045;-57
2022/11/13 03:09:54;;;;;;;30.13;20.33;;;7.60;99.90;;;;;;5010120;28;20026;-55
2022/11/13 03:12:19;;;;;;;31.10;21.17;;;7.60;99.90;;;;;;5011779;28;20390;-56
2022/11/13 03:14:45;;;;;;;33.58;20.60;;;7.70;99.90;;;;;;4976856;28;20034;-58
2022/11/13 03:17:11;;;;;;;28.02;18.70;;;7.50;99.90;;;;;;5007796;28;20041;-56
2022/11/13 03:19:36;;;;;;;26.00;13.70;;;7.50;99.90;;;;;;5010995;28;20038;-56
2022/11/13 03:22:03;;;;;;;21.45;12.57;;;;;;;;;;5011404;28;20030;-58
2022/11/13 03:24:29;;;;;;;495.88;444.60;;;;;;;;;;5006922;28;20046;-56
2022/11/13 03:26:54;;;;;;;21.52;13.82;;;6.40;99.90;;;;;;4993399;28;20038;-60
2022/11/13 03:29:20;;;;;;;25.48;17.50;;;6.00;99.90;;;;;;5006732;28;20474;-57
2022/11/13 03:31:46;;;;;;;61.15;35.10;;;6.00;99.90;;;;;;5011719;28;20030;-55
2022/11/13 03:34:12;;;;;;;376.45;339.55;;;;;;;;;;5010896;28;20021;-59
2022/11/13 03:36:37;;;;;;;28.90;17.85;;;5.40;99.90;;;;;;5023995;28;20494;-58
2022/11/13 03:39:03;;;;;;;28.27;17.10;;;5.80;99.90;;;;;;5012154;28;20029;-55
2022/11/13 03:41:29;;;;;;;28.58;19.48;;;5.60;99.90;;;;;;5009981;28;20042;-55
2022/11/13 03:43:55;;;;;;;32.88;20.77;;;5.50;99.90;;;;;;5005255;28;20073;-57
2022/11/13 03:46:20;;;;;;;31.20;17.77;;;5.40;99.90;;;;;;5008777;28;20030;-56
2022/11/13 03:48:46;;;;;;;26.30;18.50;;;5.20;99.90;;;;;;5008593;28;20029;-60
2022/11/13 03:51:12;;;;;;;25.50;17.83;;;5.20;99.90;;;;;;5039000;28;20555;-59
2022/11/13 03:53:38;;;;;;;28.13;18.15;;;5.30;99.90;;;;;;5005667;28;20026;-57
2022/11/13 03:56:04;;;;;;;29.67;18.40;;;5.30;99.90;;;;;;5007796;28;20180;-54
2022/11/13 03:58:30;;;;;;;32.58;20.08;;;;;;;;;;5038495;28;20077;-56
2022/11/13 04:00:56;;;;;;;29.02;18.90;;;;;;;;;;5005925;28;20026;-54
2022/11/13 04:03:22;;;;;;;29.42;18.30;;;6.20;99.90;;;;;;5007945;28;20038;-53
2022/11/13 04:05:49;;;;;;;28.60;19.45;;;5.90;99.90;;;;;;5009873;28;20056;-58
2022/11/13 04:08:15;;;;;;;27.08;18.80;;;6.30;99.90;;;;;;5003800;28;20026;-53
2022/11/13 04:10:41;;;;;;;29.10;17.95;;;6.30;99.90;;;;;;5009434;28;20022;-59
2022/11/13 04:13:07;;;;;;;27.77;18.70;;;6.20;99.90;;;;;;5026414;28;20568;-57
2022/11/13 04:15:33;;;;;;;27.33;19.60;;;;;;;;;;5006449;28;20078;-54
2022/11/13 04:17:59;;;;;;;31.83;21.17;;;5.80;99.90;;;;;;5009266;28;20116;-58
2022/11/13 04:20:26;;;;;;;29.90;20.92;;;;;;;;;;5008621;28;20161;-59
2022/11/13 04:22:56;;;;;;;25.25;15.27;;;6.00;99.90;;;;;;5011761;28;20037;-55
2022/11/13 04:25:22;;;;;;;33.70;19.00;;;5.40;99.90;;;;;;5025009;28;20494;-54
2022/11/13 04:27:49;;;;;;;31.25;18.95;;;5.30;99.90;;;;;;5010933;28;20990;-56
2022/11/13 04:30:15;;;;;;;36.53;19.58;;;5.70;99.90;;;;;;5009187;28;20092;-55
2022/11/13 04:32:41;;;;;;;30.10;20.15;;;;;;;;;;5011586;28;20096;-56
2022/11/13 04:35:08;;;;;;;27.55;19.27;;;5.70;99.90;;;;;;5006906;28;20026;-55
2022/11/13 04:37:34;;;;;;;28.67;18.80;;;6.00;99.90;;;;;;5003808;28;20046;-57
2022/11/13 04:40:00;;;;;;;28.42;20.08;;;;;;;;;;5009879;28;20462;-56
2022/11/13 04:43:11;;;;;;;29.23;19.27;;;6.70;99.90;;;;;;5008994;28;20056;-58
2022/11/13 04:45:12;;;;;;;29.70;19.23;;;;;;;;;;4998317;28;20069;-54
2022/11/13 04:47:38;;;;;;;27.92;18.83;;;7.10;99.90;;;;;;5009364;28;20133;-58
2022/11/13 04:50:04;;;;;;;31.02;19.23;;;6.30;99.90;;;;;;5008957;28;20538;-56
2022/11/13 04:52:30;;;;;;;29.73;19.73;;;5.90;99.90;;;;;;5004351;28;20474;-55
2022/11/13 04:54:56;;;;;;;27.73;20.75;;;6.30;99.90;;;;;;5009114;28;20030;-55
2022/11/13 04:57:22;;;;;;;27.70;20.20;;;6.20;99.90;;;;;;5007771;28;20042;-57
2022/11/13 04:59:48;;;;;;;30.50;21.13;;;6.20;99.90;;;;;;5005997;28;20049;-52
2022/11/13 05:02:14;;;;;;;35.17;22.55;;;;;;;;;;5009944;28;20036;-55
2022/11/13 05:04:39;;;;;;;32.47;19.45;;;5.70;99.90;;;;;;5011474;28;20124;-58
2022/11/13 05:07:05;;;;;;;29.63;17.50;;;5.70;99.90;;;;;;5014083;28;20465;-57
2022/11/13 05:09:31;;;;;;;29.90;19.75;;;5.10;99.90;;;;;;5011396;28;20042;-56
2022/11/13 05:11:57;;;;;;;29.45;18.52;;;5.10;99.90;;;;;;5013119;28;20032;-54
2022/11/13 05:14:23;;;;;;;24.33;15.57;;;;;;;;;;5012397;28;20022;-56
2022/11/13 05:16:49;;;;;;;28.75;18.52;;;4.40;99.90;;;;;;5012614;28;20191;-54
2022/11/13 05:19:15;;;;;;;30.23;19.55;;;4.80;99.90;;;;;;5006605;28;20479;-58
2022/11/13 05:21:42;;;;;;;29.65;17.17;;;4.70;99.90;;;;;;5012664;28;20026;-60
2022/11/13 05:24:10;;;;;;;28.58;17.67;;;4.60;99.90;;;;;;5012432;28;20543;-55
2022/11/13 05:26:39;;;;;;;29.63;19.42;;;5.10;99.90;;;;;;5011740;28;20044;-54
2022/11/13 05:29:05;;;;;;;27.73;18.88;;;5.40;99.90;;;;;;5012382;28;20026;-58
2022/11/13 05:31:31;;;;;;;27.40;18.38;;;5.50;99.90;;;;;;5009523;28;20033;-55
2022/11/13 05:33:57;;;;;;;27.65;18.83;;;6.00;99.90;;;;;;5011207;28;20041;-55
2022/11/13 05:36:22;;;;;;;28.25;18.73;;;5.50;99.90;;;;;;5025863;28;20046;-55
2022/11/13 05:38:48;;;;;;;25.40;17.15;;;5.10;99.90;;;;;;5011298;28;20026;-59
2022/11/13 05:41:17;;;;;;;27.23;17.77;;;4.90;99.90;;;;;;5006413;28;20080;-57
2022/11/13 05:43:44;;;;;;;29.83;19.77;;;5.00;99.90;;;;;;5002293;28;20028;-58
2022/11/13 05:46:21;;;;;;;33.80;19.15;;;4.90;99.90;;;;;;5009906;28;20084;-53
2022/11/13 05:48:50;;;;;;;28.15;17.70;;;5.50;99.90;;;;;;5009998;28;20034;-56
2022/11/13 05:51:19;;;;;;;23.90;17.95;;;6.20;99.90;;;;;;5011637;28;20029;-55
2022/11/13 05:53:45;;;;;;;27.65;18.52;;;5.90;99.90;;;;;;5008641;28;20041;-57
2022/11/13 05:56:12;;;;;;;32.13;19.83;;;6.40;99.90;;;;;;5027818;28;20058;-54
2022/11/13 05:58:39;;;;;;;29.10;20.17;;;6.70;99.90;;;;;;5010645;28;20030;-58
2022/11/13 06:01:15;;;;;;;29.75;20.48;;;6.70;99.90;;;;;;5010388;28;20022;-57
2022/11/13 06:03:42;;;;;;;31.95;19.77;;;6.80;99.90;;;;;;5012795;28;20049;-53
2022/11/13 06:06:10;;;;;;;31.02;21.80;;;6.10;99.90;;;;;;5012405;28;20096;-54
2022/11/13 06:08:36;;;;;;;32.00;20.90;;;7.30;99.90;;;;;;5009543;28;20413;-53
2022/11/13 06:11:08;;;;;;;37.25;19.50;;;7.90;99.90;;;;;;5024850;28;20142;-58
2022/11/13 06:13:34;;;;;;;28.45;19.52;;;8.30;99.90;;;;;;5011200;28;20018;-56
2022/11/13 06:16:10;;;;;;;28.05;18.38;;;9.40;99.90;;;;;;5027377;28;20139;-55
2022/11/13 06:18:37;;;;;;;36.17;18.25;;;10.20;99.90;;;;;;5007173;28;20505;-57
2022/11/13 06:21:06;;;;;;;26.83;19.15;;;11.60;99.90;;;;;;5005459;28;20026;-54
2022/11/13 06:23:34;;;;;;;25.27;18.85;;;11.50;99.90;;;;;;5005272;28;20021;-58
2022/11/13 06:26:08;;;;;;;24.63;16.65;;;12.90;99.90;;;;;;5007888;28;20028;-56
2022/11/13 06:28:35;;;;;;;24.50;17.77;;;14.40;99.90;;;;;;5010695;28;20038;-52
2022/11/13 06:31:05;;;;;;;21.30;16.02;;;;;;;;;;5012701;28;20022;-52
2022/11/13 06:33:32;;;;;;;22.58;15.60;;;;;;;;;;5009488;28;20125;-56
2022/11/13 06:36:00;;;;;;;21.70;15.68;;;17.50;99.90;;;;;;5006828;28;20034;-56
2022/11/13 06:38:25;;;;;;;24.10;17.30;;;18.80;99.90;;;;;;5037967;28;20033;-56
2022/11/13 06:40:51;;;;;;;23.60;17.60;;;19.20;99.90;;;;;;5014023;28;20026;-58
2022/11/13 06:43:17;;;;;;;26.90;19.73;;;20.10;99.90;;;;;;5013224;28;20026;-61
2022/11/13 06:45:42;;;;;;;41.13;27.52;;;20.70;99.90;;;;;;5012977;28;20045;-54
2022/11/13 06:48:08;;;;;;;44.80;31.00;;;21.00;99.90;;;;;;5028577;28;20026;-58
2022/11/13 06:50:34;;;;;;;27.02;21.05;;;21.10;93.20;;;;;;5041844;28;20046;-56
2022/11/13 06:53:00;;;;;;;22.52;16.85;;;21.40;92.40;;;;;;5011256;28;20038;-53
2022/11/13 06:55:26;;;;;;;28.95;22.33;;;;;;;;;;5002624;28;20042;-54
2022/11/13 06:57:53;;;;;;;22.83;16.30;;;21.90;99.90;;;;;;5009004;28;20034;-56
2022/11/13 07:00:19;;;;;;;24.70;17.30;;;23.00;95.60;;;;;;5009171;28;20030;-54
2022/11/13 07:02:48;;;;;;;22.95;17.25;;;22.80;89.80;;;;;;5011599;28;20049;-59
2022/11/13 07:05:15;;;;;;;21.90;18.40;;;;;;;;;;5022902;28;20065;-53
2022/11/13 07:07:40;;;;;;;21.08;16.38;;;23.70;94.20;;;;;;5009894;28;20088;-50
2022/11/13 07:10:07;;;;;;;22.65;17.15;;;23.60;86.50;;;;;;5012524;28;20065;-52
2022/11/13 07:12:33;;;;;;;21.67;18.15;;;20.90;96.00;;;;;;5024073;28;20115;-49
2022/11/13 07:14:58;;;;;;;25.50;18.42;;;20.80;86.10;;;;;;5012216;28;20089;-55
2022/11/13 07:17:24;;;;;;;22.77;18.67;;;20.30;87.10;;;;;;5012193;28;20489;-59
2022/11/13 07:19:50;;;;;;;27.67;19.95;;;15.10;96.60;;;;;;5026592;28;20041;-57
2022/11/13 07:22:16;;;;;;;27.65;18.35;;;15.10;92.90;;;;;;5027382;28;20036;-58
2022/11/13 07:24:41;;;;;;;27.05;19.88;;;12.90;99.90;;;;;;5027311;28;20038;-49
2022/11/13 07:27:07;;;;;;;27.52;19.33;;;12.00;99.90;;;;;;5011441;28;20480;-55
2022/11/13 07:29:35;;;;;;;31.25;21.85;;;12.60;99.90;;;;;;5011419;28;20033;-51
2022/11/13 07:32:01;;;;;;;30.42;19.92;;;;;;;;;;5010529;28;20064;-54
2022/11/13 07:34:27;;;;;;;24.95;20.25;;;17.50;99.90;;;;;;5010813;28;20416;-56
2022/11/13 07:36:53;;;;;;;28.35;19.45;;;;;;;;;;5012089;28;20041;-56
2022/11/13 07:39:18;;;;;;;23.52;19.02;;;19.40;99.90;;;;;;5012981;28;20021;-56
2022/11/13 07:41:46;;;;;;;21.52;19.05;;;19.50;98.00;;;;;;5011890;28;20041;-52
2022/11/13 07:44:12;;;;;;;25.75;18.85;;;19.20;94.60;;;;;;5006002;28;20065;-56
2022/11/13 07:46:37;;;;;;;23.98;17.67;;;20.50;93.00;;;;;;5025404;28;20061;-54
2022/11/13 07:49:03;;;;;;;22.85;18.27;;;19.80;96.30;;;;;;5010691;28;20112;-56
2022/11/13 07:51:29;;;;;;;22.77;17.05;;;20.10;93.00;;;;;;5023013;28;20545;-55
2022/11/13 07:53:54;;;;;;;22.10;15.60;;;19.90;98.00;;;;;;5011858;28;20370;-57
2022/11/13 07:56:21;;;;;;;23.50;18.20;;;19.90;97.60;;;;;;5008569;28;20168;-54
2022/11/13 07:58:48;;;;;;;21.52;16.65;;;20.70;97.60;;;;;;5024698;28;20073;-55
2022/11/13 08:01:14;;;;;;;24.92;20.02;;;21.30;93.40;;;;;;5024589;28;20041;-56
2022/11/13 08:03:39;;;;;;;21.85;16.17;;;20.90;92.40;;;;;;5010949;28;20050;-56
2022/11/13 08:06:06;;;;;;;22.30;16.23;;;21.00;92.10;;;;;;5033092;28;20042;-54
2022/11/13 08:08:33;;;;;;;17.75;14.95;;;21.90;91.80;;;;;;4988055;28;20119;-56
2022/11/13 08:11:07;;;;;;;19.90;17.17;;;22.10;99.90;;;;;;5010078;28;20025;-56
2022/11/13 08:13:34;;;;;;;20.92;17.48;;;23.40;98.30;;;;;;5003426;28;20034;-56
2022/11/13 08:16:01;;;;;;;16.95;15.13;;;23.40;91.00;;;;;;5009184;28;20189;-56
2022/11/13 08:18:28;;;;;;;20.50;16.33;;;22.10;90.00;;;;;;5036472;28;20074;-55
2022/11/13 08:20:55;;;;;;;18.88;14.95;;;21.30;90.50;;;;;;5009537;28;20141;-56
2022/11/13 08:23:21;;;;;;;21.90;16.15;;;21.60;90.80;;;;;;5001589;28;20041;-55
2022/11/13 08:25:46;;;;;;;22.67;15.82;;;22.80;92.60;;;;;;5008907;28;20026;-56
2022/11/13 08:28:12;;;;;;;15.00;13.15;;;20.60;95.50;;;;;;5010256;28;20026;-51
2022/11/13 08:30:38;;;;;;;16.08;12.95;;;21.30;95.70;;;;;;5009264;28;20454;-54
2022/11/13 08:33:04;;;;;;;19.40;13.57;;;;;;;;;;5042167;28;20115;-57
2022/11/13 08:35:30;;;;;;;16.90;13.80;;;21.90;88.30;;;;;;5016584;28;20037;-54
2022/11/13 08:38:03;;;;;;;18.73;14.52;;;22.00;90.30;;;;;;5043981;28;20107;-54
2022/11/13 08:40:29;;;;;;;16.98;13.77;;;22.80;89.90;;;;;;5047457;28;20384;-57
2022/11/13 08:43:02;;;;;;;18.90;13.75;;;22.50;90.10;;;;;;5005162;28;20124;-53
2022/11/13 08:45:29;;;;;;;15.85;14.18;;;23.10;92.80;;;;;;5047019;28;20021;-54
2022/11/13 08:48:02;;;;;;;19.98;15.02;;;24.00;99.90;;;;;;5049029;28;20072;-57
2022/11/13 08:50:29;;;;;;;16.27;13.80;;;23.80;99.90;;;;;;5047851;28;20385;-54
2022/11/13 08:52:56;;;;;;;17.35;13.93;;;23.70;87.30;;;;;;5052811;28;20044;-56
2022/11/13 08:55:23;;;;;;;15.10;13.13;;;23.10;88.60;;;;;;5050919;28;20025;-56
2022/11/13 08:57:50;;;;;;;15.88;14.27;;;22.40;89.10;;;;;;5048447;28;20049;-55
2022/11/13 09:00:16;;;;;;;15.18;13.38;;;22.70;89.60;;;;;;5046044;28;20029;-52
2022/11/13 09:02:42;;;;;;;15.75;14.07;;;22.80;89.40;;;;;;5045348;28;20030;-57
2022/11/13 09:05:08;;;;;;;15.00;12.85;;;21.80;90.20;;;;;;5012292;28;20046;-54
2022/11/13 09:07:34;;;;;;;15.98;14.00;;;22.40;90.40;;;;;;5006326;28;20053;-59
2022/11/13 09:10:00;;;;;;;18.70;13.73;;;22.80;94.60;;;;;;5010171;28;20030;-57
2022/11/13 09:12:25;;;;;;;13.80;12.43;;;22.20;91.70;;;;;;5014651;28;20034;-57
2022/11/13 09:14:51;;;;;;;15.93;14.23;;;21.90;90.80;;;;;;5010273;28;20038;-53
2022/11/13 09:17:17;;;;;;;15.80;14.20;;;21.70;90.50;;;;;;5009935;28;20105;-54
2022/11/13 09:19:43;;;;;;;15.57;13.98;;;;;;;;;;5011845;28;20444;-56
2022/11/13 09:22:10;;;;;;;16.45;14.65;;;22.00;95.70;;;;;;5006727;28;20030;-55
2022/11/13 09:24:35;;;;;;;14.90;13.50;;;22.60;91.70;;;;;;5009328;28;20057;-54
2022/11/13 09:27:01;;;;;;;15.90;13.13;;;22.00;90.40;;;;;;5028632;28;20076;-54
2022/11/13 09:29:27;;;;;;;14.50;13.00;;;22.30;90.70;;;;;;5011045;28;20033;-55
2022/11/13 09:31:54;;;;;;;16.58;12.90;;;21.80;90.50;;;;;;5008284;28;20449;-54
2022/11/13 09:34:21;;;;;;;16.45;12.95;;;22.40;91.20;;;;;;5008451;28;20049;-56
2022/11/13 09:36:47;;;;;;;13.27;11.98;;;22.40;90.40;;;;;;5011612;28;20042;-56
2022/11/13 09:39:12;;;;;;;14.50;13.00;;;21.50;93.60;;;;;;4997085;28;20060;-52
2022/11/13 09:41:46;;;;;;;12.52;11.32;;;21.60;90.10;;;;;;5005580;28;20479;-51
2022/11/13 09:44:52;;;;;;;14.55;13.05;;;20.50;91.20;;;;;;5009960;28;20026;-54
2022/11/13 09:47:23;;;;;;;14.70;12.45;;;20.80;91.10;;;;;;5023118;28;20073;-50
2022/11/13 09:50:03;;;;;;;14.07;12.38;;;20.90;91.40;;;;;;5013165;28;20026;-50
2022/11/13 09:52:34;;;;;;;15.93;14.45;;;20.80;95.60;;;;;;5012024;28;20038;-52
2022/11/13 09:55:00;;;;;;;16.05;14.52;;;20.80;91.10;;;;;;5007566;28;20429;-50
2022/11/13 09:58:01;;;;;;;14.95;13.55;;;21.50;91.20;;;;;;5036842;28;20058;-53
2022/11/13 10:00:28;;;;;;;14.13;12.23;;;;;;;;;;5003635;28;20077;-52
2022/11/13 10:03:06;;;;;;;14.48;13.00;;;24.00;91.20;;;;;;5012421;28;20490;-53
2022/11/13 10:05:34;;;;;;;14.45;11.40;;;;;;;;;;5009174;28;20041;-55
2022/11/13 10:08:15;;;;;;;17.45;15.25;;;;;;;;;;5010885;28;20033;-50
2022/11/13 10:10:50;;;;;;;14.48;12.98;;;;;;;;;;5011151;28;20478;-53
2022/11/13 10:13:30;;;;;;;17.92;14.43;;;24.40;88.30;;;;;;5011161;28;20030;-53
2022/11/13 10:16:21;;;;;;;14.90;13.32;;;23.50;87.70;;;;;;5002467;28;20508;-53
2022/11/13 10:18:49;;;;;;;15.90;14.27;;;24.60;99.00;;;;;;5007134;28;20085;-53
2022/11/13 10:21:35;;;;;;;14.23;12.88;;;24.00;86.40;;;;;;5012618;28;20028;-55
2022/11/13 10:24:10;;;;;;;14.13;12.50;;;23.70;87.70;;;;;;5005992;28;20125;-53
2022/11/13 10:26:37;;;;;;;12.27;11.07;;;;;;;;;;5012511;28;20030;-51
2022/11/13 10:29:12;;;;;;;14.98;13.57;;;22.90;99.90;;;;;;5006929;28;20044;-57
2022/11/13 10:31:47;;;;;;;12.38;11.10;;;23.50;98.50;;;;;;5011906;28;20393;-56
2022/11/13 10:34:14;;;;;;;13.25;10.85;;;;;;;;;;5027889;28;20048;-53
2022/11/13 10:36:58;;;;;;;13.68;10.85;;;21.10;96.90;;;;;;5002331;28;20031;-52
2022/11/13 10:39:23;;;;;;;12.77;11.43;;;21.60;91.10;;;;;;5010734;28;20026;-52
2022/11/13 10:41:51;;;;;;;14.00;12.27;;;21.40;91.60;;;;;;5007245;28;20044;-55
2022/11/13 10:44:31;;;;;;;11.57;9.65;;;21.80;90.80;;;;;;5013944;28;20064;-54
2022/11/13 10:47:18;;;;;;;10.98;9.85;;;21.50;90.60;;;;;;5026427;28;20049;-56
2022/11/13 10:49:43;;;;;;;11.60;9.90;;;22.00;90.30;;;;;;5010235;28;20056;-54
2022/11/13 10:52:22;;;;;;;12.10;9.57;;;21.80;90.30;;;;;;5007599;28;20499;-55
2022/11/13 10:54:48;;;;;;;13.15;8.63;;;22.20;90.10;;;;;;5012763;28;20506;-55
2022/11/13 10:57:21;;;;;;;12.18;9.85;;;21.30;90.60;;;;;;5010553;28;20037;-55
2022/11/13 10:59:47;;;;;;;11.05;9.40;;;21.50;90.90;;;;;;5006799;28;20394;-57
2022/11/13 11:02:21;;;;;;;11.57;9.25;;;21.10;90.80;;;;;;5011222;28;20026;-56
2022/11/13 11:04:47;;;;;;;12.32;10.75;;;19.60;91.50;;;;;;5012782;28;20045;-55
2022/11/13 11:07:16;;;;;;;12.95;10.68;;;20.20;92.10;;;;;;5007635;28;20048;-52
2022/11/13 11:09:45;;;;;;;12.07;10.55;;;20.90;91.90;;;;;;5006365;28;20038;-52
2022/11/13 11:12:20;;;;;;;10.88;9.45;;;20.70;91.50;;;;;;5011915;28;20084;-55
2022/11/13 11:14:58;;;;;;;12.40;10.75;;;21.50;95.40;;;;;;5009325;28;20438;-56
2022/11/13 11:17:52;;;;;;;12.60;10.98;;;21.30;91.00;;;;;;5054534;28;20108;-53
2022/11/13 11:20:37;;;;;;;11.60;9.25;;;;;;;;;;5030433;28;20049;-55
2022/11/13 11:23:17;;;;;;;10.35;9.07;;;21.90;90.50;;;;;;5030732;28;20393;-51
2022/11/13 11:26:08;;;;;;;10.55;9.35;;;21.50;94.70;;;;;;5029305;28;20046;-55
2022/11/13 11:28:58;;;;;;;12.73;9.03;;;21.20;95.10;;;;;;4979541;28;20149;-55
2022/11/13 11:31:51;;;;;;;11.93;9.70;;;21.30;91.40;;;;;;4955429;28;20070;-53
2022/11/13 11:34:23;;;;;;;11.70;10.32;;;21.30;91.50;;;;;;4956239;28;20509;-55
2022/11/13 11:37:12;;;;;;;11.95;10.18;;;22.10;94.90;;;;;;4955624;28;20088;-57
2022/11/13 11:39:59;;;;;;;11.18;9.55;;;22.20;91.00;;;;;;4959197;28;20034;-53
2022/11/13 11:42:35;;;;;;;11.65;8.35;;;22.00;91.30;;;;;;4955450;28;20035;-51
2022/11/13 11:45:14;;;;;;;11.88;7.93;;;21.90;91.00;;;;;;4951828;28;20542;-56
2022/11/13 11:47:40;;;;;;;9.32;7.25;;;22.00;91.10;;;;;;4952744;28;20023;-56
2022/11/13 11:50:12;;;;;;;9.75;7.50;;;21.50;91.10;;;;;;4957748;28;20057;-54
2022/11/13 11:53:23;;;;;;;8.30;6.13;;;20.90;91.30;;;;;;4958447;28;20035;-54
2022/11/13 11:56:13;;;;;;;11.25;7.00;;;20.10;99.90;;;;;;4856326;29;20066;-54
2022/11/13 11:58:59;;;;;;;9.05;6.85;;;20.60;96.30;;;;;;4857343;29;20072;-55
2022/11/13 12:01:50;;;;;;;8.88;7.30;;;20.60;95.50;;;;;;4856841;29;20120;-54
2022/11/13 12:04:30;;;;;;;9.38;7.05;;;20.70;99.90;;;;;;4856450;29;20620;-50
2022/11/13 12:07:23;;;;;;;9.48;7.13;;;20.60;99.00;;;;;;4856083;29;20202;-53
2022/11/13 12:10:13;;;;;;;10.18;8.00;;;20.80;99.20;;;;;;4931593;29;20107;-55
2022/11/13 12:12:51;;;;;;;12.10;7.35;;;20.70;99.30;;;;;;4931571;29;20484;-53
2022/11/13 12:15:21;;;;;;;8.70;7.50;;;20.70;99.70;;;;;;4931772;29;20035;-54
2022/11/13 12:18:03;;;;;;;18.77;9.55;;;21.00;99.90;;;;;;4931565;29;20047;-53
2022/11/13 12:20:45;;;;;;;11.30;8.15;;;20.40;92.20;;;;;;4931555;29;20127;-55
2022/11/13 12:23:32;;;;;;;9.70;7.80;;;20.90;99.30;;;;;;4931688;29;20095;-55
2022/11/13 12:26:10;;;;;;;12.95;8.02;;;20.10;94.60;;;;;;4932056;29;20044;-56
2022/11/13 12:28:56;;;;;;;9.93;7.20;;;19.70;92.50;;;;;;4914432;29;20125;-55
2022/11/13 12:31:23;;;;;;;11.38;8.20;;;;;;;;;;4940306;28;20050;-56
2022/11/13 12:34:06;;;;;;;12.00;8.98;;;;;;;;;;5005321;28;20042;-56
2022/11/13 12:36:33;;;;;;;11.07;8.60;;;;;;;;;;5004556;28;20042;-55
2022/11/13 12:39:02;;;;;;;11.43;8.55;;;19.10;94.90;;;;;;5010460;28;20042;-52
2022/11/13 12:41:36;;;;;;;11.00;9.10;;;;;;;;;;5007504;28;20037;-53
2022/11/13 12:44:19;;;;;;;12.13;9.45;;;;;;;;;;5003034;28;20033;-53
2022/11/13 12:46:47;;;;;;;11.32;8.20;;;18.30;94.00;;;;;;5003820;28;20113;-57
2022/11/13 12:49:22;;;;;;;14.68;8.98;;;;;;;;;;5002874;28;20042;-56
2022/11/13 12:51:54;;;;;;;11.77;8.48;;;;;;;;;;5005602;28;20037;-53
2022/11/13 12:54:28;;;;;;;11.20;8.45;;;18.00;99.10;;;;;;5003793;28;20470;-53
2022/11/13 12:57:25;;;;;;;10.30;8.35;;;17.50;99.40;;;;;;5010557;28;20165;-54